createdAt,value
2018-09-13T00:00:45.731Z,82.22
2018-09-13T00:03:14.124Z,82.65
2018-09-13T00:05:42.551Z,83.57
2018-09-13T00:08:11.461Z,82.62
2018-09-13T00:10:39.851Z,82.81
2018-09-13T00:13:08.212Z,83.26
2018-09-13T00:15:36.574Z,82.86
2018-09-13T00:18:04.940Z,81.62
2018-09-13T00:20:33.346Z,81.78
2018-09-13T00:23:01.652Z,81.94
2018-09-13T00:25:30.023Z,82.15
2018-09-13T00:27:58.366Z,82.77
2018-09-13T00:30:26.733Z,82.31
2018-09-13T00:32:55.098Z,82.30
2018-09-13T00:44:31.187Z,83.14
2018-09-13T00:46:59.512Z,82.70
2018-09-13T00:49:27.877Z,82.44
2018-09-13T00:51:56.270Z,82.65
2018-09-13T00:54:24.600Z,82.89
2018-09-13T00:56:52.999Z,82.34
2018-09-13T00:59:21.326Z,81.91
2018-09-13T01:01:49.671Z,82.29
2018-09-13T01:04:17.992Z,82.09
2018-09-13T01:06:46.516Z,83.03
2018-09-13T01:09:14.855Z,83.06
2018-09-13T01:11:43.171Z,82.24
2018-09-13T01:14:18.260Z,82.82
2018-09-13T01:16:47.196Z,82.68
2018-09-13T01:19:15.574Z,81.55
2018-09-13T01:21:43.899Z,81.31
2018-09-13T01:24:12.248Z,81.99
2018-09-13T01:26:40.625Z,81.44
2018-09-13T01:29:09.011Z,81.67
2018-09-13T01:31:37.375Z,80.95
2018-09-13T01:34:05.707Z,81.59
2018-09-13T01:36:34.199Z,82.17
2018-09-13T01:39:02.524Z,81.23
2018-09-13T01:41:30.926Z,81.53
2018-09-13T01:43:59.254Z,81.81
2018-09-13T01:46:27.659Z,82.94
2018-09-13T01:48:56.018Z,82.52
2018-09-13T01:51:24.338Z,83.94
2018-09-13T01:53:52.792Z,84.00
2018-09-13T01:56:21.144Z,83.39
2018-09-13T01:58:49.471Z,82.68
2018-09-13T02:01:17.806Z,82.18
2018-09-13T02:03:46.230Z,82.18
2018-09-13T02:06:14.585Z,82.30
2018-09-13T02:08:43.160Z,82.43
2018-09-13T02:11:11.585Z,82.51
2018-09-13T02:13:39.916Z,82.17
2018-09-13T02:16:08.286Z,81.32
2018-09-13T02:18:36.589Z,81.38
2018-09-13T02:21:04.931Z,81.11
2018-09-13T02:23:33.250Z,81.77
2018-09-13T02:26:01.616Z,81.46
2018-09-13T02:28:29.987Z,81.07
2018-09-13T02:30:58.317Z,81.19
2018-09-13T02:33:26.771Z,83.00
2018-09-13T02:35:55.116Z,83.10
2018-09-13T02:38:23.418Z,82.31
2018-09-13T02:40:51.839Z,82.44
2018-09-13T02:43:20.244Z,81.40
2018-09-13T02:45:48.749Z,81.18
2018-09-13T02:48:17.100Z,81.85
2018-09-13T02:50:45.506Z,81.35
2018-09-13T02:53:13.889Z,81.93
2018-09-13T02:55:42.354Z,82.07
2018-09-13T02:58:10.707Z,82.33
2018-09-13T03:00:39.058Z,82.10
2018-09-13T03:03:07.423Z,81.39
2018-09-13T03:05:35.718Z,81.41
2018-09-13T03:08:04.117Z,81.28
2018-09-13T03:10:32.620Z,80.77
2018-09-13T03:13:01.012Z,81.12
2018-09-13T03:15:29.311Z,81.30
2018-09-13T03:17:57.718Z,81.21
2018-09-13T03:20:26.082Z,81.70
2018-09-13T03:22:54.386Z,81.09
2018-09-13T03:25:22.806Z,80.70
2018-09-13T03:27:51.252Z,81.48
2018-09-13T03:30:19.641Z,81.37
2018-09-13T03:32:48.102Z,81.34
2018-09-13T03:35:16.547Z,81.37
2018-09-13T03:37:44.930Z,81.08
2018-09-13T03:40:13.306Z,80.97
2018-09-13T03:42:41.726Z,82.07
2018-09-13T03:45:10.070Z,81.37
2018-09-13T03:47:38.396Z,80.81
2018-09-13T03:50:07.925Z,80.61
2018-09-13T03:52:36.339Z,81.62
2018-09-13T03:55:04.681Z,81.49
2018-09-13T03:57:33.190Z,81.62
2018-09-13T04:00:01.508Z,81.07
2018-09-13T04:02:30.012Z,80.47
2018-09-13T04:04:58.444Z,81.21
2018-09-13T04:07:26.881Z,80.97
2018-09-13T04:09:55.625Z,81.07
2018-09-13T04:12:23.966Z,82.08
2018-09-13T04:14:52.247Z,81.07
2018-09-13T04:17:20.564Z,81.14
2018-09-13T04:19:48.985Z,81.53
2018-09-13T04:22:17.931Z,81.72
2018-09-13T04:24:46.256Z,81.87
2018-09-13T04:27:14.990Z,82.59
2018-09-13T04:29:43.679Z,81.63
2018-09-13T04:32:12.041Z,82.28
2018-09-13T04:34:40.653Z,81.93
2018-09-13T04:37:09.327Z,82.28
2018-09-13T04:39:37.625Z,83.23
2018-09-13T04:42:05.987Z,82.71
2018-09-13T04:44:34.289Z,83.08
2018-09-13T04:47:02.651Z,82.81
2018-09-13T04:49:30.929Z,84.04
2018-09-13T04:51:59.338Z,83.63
2018-09-13T04:54:27.655Z,83.15
2018-09-13T04:56:55.984Z,83.09
2018-09-13T04:59:24.306Z,82.75
2018-09-13T05:01:52.667Z,82.85
2018-09-13T05:04:21.007Z,83.27
2018-09-13T05:06:49.597Z,82.87
2018-09-13T05:09:18.372Z,82.98
2018-09-13T05:11:46.861Z,82.55
2018-09-13T05:14:15.407Z,81.48
2018-09-13T05:16:46.358Z,82.51
2018-09-13T05:19:14.705Z,82.93
2018-09-13T05:21:43.215Z,82.48
2018-09-13T05:24:11.687Z,82.63
2018-09-13T05:26:40.060Z,83.56
2018-09-13T05:29:08.415Z,83.55
2018-09-13T05:31:36.831Z,83.43
2018-09-13T05:34:05.180Z,83.01
2018-09-13T05:36:36.206Z,82.72
2018-09-13T05:39:07.244Z,82.82
2018-09-13T05:41:35.980Z,83.18
2018-09-13T05:44:05.098Z,83.64
2018-09-13T05:46:33.479Z,82.84
2018-09-13T05:49:03.286Z,81.86
2018-09-13T05:51:31.659Z,82.21
2018-09-13T05:54:00.015Z,82.35
2018-09-13T05:56:28.418Z,79.49
2018-09-13T05:58:57.222Z,80.08
2018-09-13T06:01:25.575Z,81.73
2018-09-13T06:03:53.862Z,82.90
2018-09-13T06:06:57.438Z,83.21
2018-09-13T06:09:25.751Z,83.40
2018-09-13T06:11:54.127Z,83.31
2018-09-13T06:14:22.432Z,82.88
2018-09-13T06:16:50.805Z,83.31
2018-09-13T06:19:19.155Z,83.14
2018-09-13T06:21:47.516Z,83.10
2018-09-13T06:24:15.836Z,84.00
2018-09-13T06:26:44.235Z,83.92
2018-09-13T06:29:12.551Z,83.79
2018-09-13T06:31:40.862Z,82.80
2018-09-13T06:34:09.154Z,83.26
2018-09-13T06:36:37.512Z,83.72
2018-09-13T06:39:07.900Z,83.49
2018-09-13T06:41:36.522Z,83.78
2018-09-13T06:44:04.940Z,84.80
2018-09-13T06:46:33.358Z,83.76
2018-09-13T06:49:01.699Z,84.71
2018-09-13T06:51:30.050Z,83.75
2018-09-13T06:53:58.449Z,85.32
2018-09-13T06:56:26.849Z,84.11
2018-09-13T06:58:55.154Z,85.39
2018-09-13T07:01:23.454Z,86.21
2018-09-13T07:03:51.808Z,85.55
2018-09-13T07:06:20.190Z,86.13
2018-09-13T07:08:48.568Z,84.32
2018-09-13T07:11:16.939Z,83.90
2018-09-13T07:13:45.315Z,83.03
2018-09-13T07:16:13.621Z,84.15
2018-09-13T07:18:41.980Z,85.65
2018-09-13T07:21:10.261Z,85.07
2018-09-13T07:23:38.710Z,84.88
2018-09-13T07:26:07.127Z,84.53
2018-09-13T07:28:35.538Z,84.92
2018-09-13T07:31:03.845Z,83.91
2018-09-13T07:33:32.177Z,83.53
2018-09-13T07:36:00.499Z,84.99
2018-09-13T07:38:28.935Z,83.85
2018-09-13T07:40:57.307Z,83.70
2018-09-13T07:43:25.683Z,84.79
2018-09-13T07:45:54.022Z,84.96
2018-09-13T07:48:22.340Z,84.65
2018-09-13T07:50:50.763Z,83.60
2018-09-13T07:53:19.055Z,83.98
2018-09-13T07:55:47.725Z,85.25
2018-09-13T07:58:16.143Z,84.32
2018-09-13T08:00:44.506Z,84.77
2018-09-13T08:03:13.045Z,85.62
2018-09-13T08:05:42.390Z,85.60
2018-09-13T08:08:10.713Z,85.28
2018-09-13T08:10:39.094Z,85.31
2018-09-13T08:13:07.549Z,84.46
2018-09-13T08:15:36.137Z,85.31
2018-09-13T08:18:04.562Z,82.98
2018-09-13T08:20:32.934Z,83.39
2018-09-13T08:23:01.239Z,85.38
2018-09-13T08:25:29.745Z,85.78
2018-09-13T08:27:58.135Z,85.76
2018-09-13T08:30:26.476Z,84.93
2018-09-13T08:32:54.835Z,85.46
2018-09-13T08:35:23.243Z,85.70
2018-09-13T08:37:51.599Z,85.81
2018-09-13T08:40:20.065Z,84.17
2018-09-13T08:42:48.431Z,83.81
2018-09-13T08:45:16.850Z,82.96
2018-09-13T08:47:45.216Z,83.19
2018-09-13T08:50:13.622Z,84.38
2018-09-13T08:52:42.020Z,84.16
2018-09-13T08:55:10.964Z,84.70
2018-09-13T08:57:40.143Z,84.06
2018-09-13T09:00:11.047Z,83.88
2018-09-13T09:02:39.758Z,84.14
2018-09-13T09:05:08.452Z,84.61
2018-09-13T09:07:37.568Z,84.78
2018-09-13T09:10:06.049Z,84.63
2018-09-13T09:12:34.445Z,84.55
2018-09-13T09:15:02.792Z,84.11
2018-09-13T09:17:31.153Z,83.87
2018-09-13T09:19:59.570Z,84.80
2018-09-13T09:22:27.958Z,85.78
2018-09-13T09:24:56.826Z,87.02
2018-09-13T09:27:25.508Z,87.74
2018-09-13T09:29:53.925Z,87.54
2018-09-13T09:32:22.250Z,87.03
2018-09-13T09:34:50.650Z,85.49
2018-09-13T09:37:19.116Z,84.61
2018-09-13T09:39:47.481Z,85.58
2018-09-13T09:42:15.806Z,86.25
2018-09-13T09:44:44.342Z,85.67
2018-09-13T09:47:12.817Z,83.97
2018-09-13T09:49:41.245Z,84.28
2018-09-13T09:52:09.962Z,83.98
2018-09-13T09:54:38.265Z,83.32
2018-09-13T09:57:06.609Z,83.13
2018-09-13T09:59:35.036Z,84.07
2018-09-13T10:02:09.137Z,84.76
2018-09-13T10:04:39.528Z,84.88
2018-09-13T10:07:10.460Z,84.38
2018-09-13T10:09:39.050Z,83.82
2018-09-13T10:12:07.467Z,82.99
2018-09-13T10:14:35.822Z,82.15
2018-09-13T10:17:10.489Z,83.65
2018-09-13T10:19:44.285Z,84.17
2018-09-13T10:22:18.261Z,84.07
2018-09-13T10:24:51.974Z,83.80
2018-09-13T10:27:25.574Z,85.43
2018-09-13T10:29:59.182Z,84.81
2018-09-13T10:32:33.038Z,84.73
2018-09-13T10:35:06.816Z,85.07
2018-09-13T10:37:40.562Z,86.53
2018-09-13T10:40:14.438Z,86.20
2018-09-13T10:42:48.143Z,86.80
2018-09-13T10:46:25.771Z,86.43
2018-09-13T10:48:59.495Z,87.88
2018-09-13T10:51:32.949Z,87.41
2018-09-13T10:55:08.654Z,87.02
2018-09-13T10:57:44.206Z,87.68
2018-09-13T11:00:13.346Z,87.09
2018-09-13T11:02:41.783Z,86.98
2018-09-13T11:05:10.238Z,84.92
2018-09-13T11:07:38.603Z,85.11
2018-09-13T11:10:07.234Z,85.85
2018-09-13T11:12:43.833Z,84.82
2018-09-13T11:15:20.335Z,85.00
2018-09-13T11:17:48.747Z,85.58
2018-09-13T11:20:17.078Z,84.77
2018-09-13T11:22:48.339Z,85.44
2018-09-13T11:25:16.695Z,85.34
2018-09-13T11:27:45.327Z,85.55
2018-09-13T11:30:13.720Z,85.61
2018-09-13T11:32:42.109Z,86.26
2018-09-13T11:35:10.528Z,86.90
2018-09-13T11:37:39.054Z,86.11
2018-09-13T11:40:07.541Z,85.24
2018-09-13T11:42:35.955Z,84.45
2018-09-13T11:45:04.593Z,84.37
2018-09-13T11:47:32.932Z,84.32
2018-09-13T11:50:01.308Z,84.07
2018-09-13T11:52:29.669Z,83.18
2018-09-13T11:54:58.270Z,82.32
2018-09-13T11:57:26.614Z,83.13
2018-09-13T11:59:55.084Z,83.04
2018-09-13T12:02:23.432Z,83.19
2018-09-13T12:04:51.774Z,83.72
2018-09-13T12:07:20.109Z,84.91
2018-09-13T12:09:48.470Z,83.11
2018-09-13T12:12:16.866Z,84.77
2018-09-13T12:14:45.250Z,84.84
2018-09-13T12:17:13.638Z,84.84
2018-09-13T12:19:41.968Z,84.24
2018-09-13T12:22:10.346Z,83.51
2018-09-13T12:24:38.731Z,84.52
2018-09-13T12:27:07.062Z,85.76
2018-09-13T12:29:35.378Z,84.67
2018-09-13T12:32:03.728Z,84.40
2018-09-13T12:34:32.162Z,84.59
2018-09-13T12:37:00.499Z,84.82
2018-09-13T12:39:29.020Z,84.83
2018-09-13T12:41:57.357Z,84.83
2018-09-13T12:44:25.739Z,83.45
2018-09-13T12:46:54.103Z,83.18
2018-09-13T12:49:22.427Z,84.90
2018-09-13T12:51:50.808Z,83.32
2018-09-13T12:54:19.186Z,84.49
2018-09-13T12:56:47.590Z,84.29
2018-09-13T12:59:15.996Z,84.89
2018-09-13T13:01:44.564Z,85.80
2018-09-13T13:04:12.932Z,84.87
2018-09-13T13:06:41.386Z,85.33
2018-09-13T13:09:10.541Z,84.29
2018-09-13T13:11:38.912Z,85.14
2018-09-13T13:14:07.347Z,86.46
2018-09-13T13:16:35.751Z,86.27
2018-09-13T13:19:04.087Z,85.61
2018-09-13T13:21:32.437Z,86.00
2018-09-13T13:24:00.788Z,86.93
2018-09-13T13:26:29.140Z,86.57
2018-09-13T13:28:57.491Z,86.36
2018-09-13T13:31:25.830Z,87.53
2018-09-13T13:33:54.257Z,86.77
2018-09-13T13:36:22.766Z,84.21
2018-09-13T13:38:51.117Z,82.80
2018-09-13T13:41:19.525Z,82.58
2018-09-13T13:43:48.166Z,85.27
2018-09-13T13:46:16.734Z,85.67
2018-09-13T13:48:45.170Z,84.01
2018-09-13T13:51:13.607Z,84.43
2018-09-13T13:53:41.965Z,85.85
2018-09-13T13:56:10.292Z,84.86
2018-09-13T13:58:39.261Z,85.12
2018-09-13T14:01:07.794Z,87.25
2018-09-13T14:03:36.168Z,86.92
2018-09-13T14:06:04.546Z,86.26
2018-09-13T14:08:32.892Z,86.41
2018-09-13T14:11:01.350Z,88.00
2018-09-13T14:13:29.837Z,87.75
2018-09-13T14:15:58.249Z,86.18
2018-09-13T14:18:26.626Z,85.43
2018-09-13T14:20:55.025Z,84.96
2018-09-13T14:23:23.404Z,87.25
2018-09-13T14:25:51.767Z,87.11
2018-09-13T14:28:20.138Z,88.11
2018-09-13T14:30:50.507Z,89.18
2018-09-13T14:33:18.957Z,90.03
2018-09-13T14:35:47.920Z,90.10
2018-09-13T14:38:16.535Z,90.18
2018-09-13T14:40:45.444Z,90.00
2018-09-13T14:43:13.966Z,89.15
2018-09-13T14:45:42.513Z,88.51
2018-09-13T14:48:12.325Z,88.40
2018-09-13T14:50:42.692Z,88.82
2018-09-13T14:53:11.467Z,88.59
2018-09-13T14:55:41.959Z,87.96
2018-09-13T14:58:12.523Z,88.04
2018-09-13T15:00:41.062Z,87.85
2018-09-13T15:03:09.864Z,87.16
2018-09-13T15:05:39.079Z,87.28
2018-09-13T15:08:08.445Z,86.55
2018-09-13T15:10:42.552Z,88.08
2018-09-13T15:13:11.831Z,86.86
2018-09-13T15:15:40.415Z,86.10
2018-09-13T15:18:09.498Z,87.50
2018-09-13T15:20:37.896Z,88.16
2018-09-13T15:23:09.250Z,89.82
2018-09-13T15:25:39.367Z,90.45
2018-09-13T15:28:10.273Z,89.83
2018-09-13T15:30:40.274Z,89.43
2018-09-13T15:33:10.843Z,89.73
2018-09-13T15:35:41.872Z,90.03
2018-09-13T15:38:15.315Z,89.96
2018-09-13T15:40:45.290Z,90.43
2018-09-13T15:43:14.267Z,91.32
2018-09-13T15:45:43.786Z,90.49
2018-09-13T15:48:12.759Z,90.73
2018-09-13T15:50:43.310Z,91.16
2018-09-13T15:53:12.573Z,92.35
2018-09-13T15:55:41.358Z,92.53
2018-09-13T15:58:12.511Z,93.62
2018-09-13T16:00:42.446Z,93.64
2018-09-13T16:03:10.996Z,93.11
2018-09-13T16:05:39.598Z,93.43
2018-09-13T16:08:08.400Z,94.04
2018-09-13T16:10:36.991Z,93.61
2018-09-13T16:13:05.897Z,94.76
2018-09-13T16:15:35.048Z,94.77
2018-09-13T16:18:03.757Z,94.55
2018-09-13T16:20:33.613Z,94.10
2018-09-13T16:23:02.249Z,94.96
2018-09-13T16:25:30.633Z,94.77
2018-09-13T16:28:00.029Z,93.94
2018-09-13T16:30:28.741Z,93.62
2018-09-13T16:32:58.239Z,93.54
2018-09-13T16:35:27.243Z,93.15
2018-09-13T16:38:01.241Z,94.06
2018-09-13T16:41:35.909Z,94.65
2018-09-13T16:44:06.193Z,94.41
2018-09-13T16:46:39.965Z,94.57
2018-09-13T16:49:09.611Z,94.54
2018-09-13T16:51:38.547Z,94.77
2018-09-13T16:54:07.133Z,94.91
2018-09-13T16:56:35.910Z,94.69
2018-09-13T16:59:04.650Z,94.43
2018-09-13T17:01:33.004Z,93.61
2018-09-13T17:04:01.373Z,94.65
2018-09-13T17:06:29.688Z,94.23
2018-09-13T17:08:58.015Z,94.55
2018-09-13T17:11:26.348Z,94.90
2018-09-13T17:13:54.868Z,95.41
2018-09-13T17:16:23.227Z,95.21
2018-09-13T17:18:51.735Z,95.34
2018-09-13T17:21:20.133Z,95.58
2018-09-13T17:23:48.632Z,95.30
2018-09-13T17:26:16.981Z,95.71
2018-09-13T17:28:45.626Z,95.74
2018-09-13T17:31:13.971Z,95.88
2018-09-13T17:33:42.388Z,96.04
2018-09-13T17:36:10.778Z,96.40
2018-09-13T17:38:39.159Z,96.60
2018-09-13T17:41:07.510Z,96.63
2018-09-13T17:43:35.970Z,96.74
2018-09-13T17:46:04.371Z,96.83
2018-09-13T17:48:32.799Z,96.61
2018-09-13T17:51:01.082Z,95.91
2018-09-13T17:53:29.437Z,95.24
2018-09-13T17:55:57.869Z,94.78
2018-09-13T17:58:26.363Z,94.80
2018-09-13T18:00:54.822Z,95.35
2018-09-13T18:03:23.271Z,94.77
2018-09-13T18:05:52.129Z,95.25
2018-09-13T18:08:20.591Z,95.02
2018-09-13T18:10:48.953Z,93.72
2018-09-13T18:13:17.431Z,93.89
2018-09-13T18:15:45.736Z,93.73
2018-09-13T18:18:14.354Z,93.92
2018-09-13T18:20:42.663Z,94.22
2018-09-13T18:23:11.226Z,93.70
2018-09-13T18:25:40.663Z,94.01
2018-09-13T18:28:09.223Z,94.18
2018-09-13T18:30:37.695Z,93.76
2018-09-13T18:33:06.115Z,94.01
2018-09-13T18:35:34.478Z,93.92
2018-09-13T18:38:03.183Z,92.93
2018-09-13T18:40:31.557Z,93.95
2018-09-13T18:42:59.850Z,94.82
2018-09-13T18:45:28.544Z,94.99
2018-09-13T18:47:57.283Z,94.26
2018-09-13T18:50:25.719Z,94.62
2018-09-13T18:52:55.493Z,94.76
2018-09-13T18:55:23.973Z,94.73
2018-09-13T18:57:52.487Z,94.87
2018-09-13T19:00:20.896Z,94.87
2018-09-13T19:02:49.514Z,94.84
2018-09-13T19:05:17.991Z,94.88
2018-09-13T19:07:46.657Z,95.16
2018-09-13T19:10:15.420Z,95.08
2018-09-13T19:12:44.361Z,94.46
2018-09-13T19:15:13.487Z,94.78
2018-09-13T19:17:42.802Z,94.83
2018-09-13T19:20:11.262Z,94.69
2018-09-13T19:22:39.814Z,94.44
2018-09-13T19:25:08.455Z,93.95
2018-09-13T19:27:36.984Z,94.45
2018-09-13T19:30:05.635Z,94.42
2018-09-13T19:32:34.177Z,94.63
2018-09-13T19:35:02.736Z,94.84
2018-09-13T19:37:31.314Z,94.69
2018-09-13T19:39:59.948Z,94.02
2018-09-13T19:42:29.178Z,93.52
2018-09-13T19:44:57.700Z,94.15
2018-09-13T19:47:26.189Z,94.28
2018-09-13T19:49:55.300Z,94.71
2018-09-13T19:52:24.230Z,94.99
2018-09-13T19:54:53.039Z,94.87
2018-09-13T19:57:22.551Z,94.48
2018-09-13T19:59:51.069Z,94.45
2018-09-13T20:02:19.592Z,94.15
2018-09-13T20:04:48.728Z,94.35
2018-09-13T20:07:17.252Z,94.00
2018-09-13T20:09:45.761Z,94.08
2018-09-13T20:12:14.168Z,93.82
2018-09-13T20:14:42.819Z,93.68
2018-09-13T20:17:11.359Z,93.96
2018-09-13T20:19:39.782Z,94.17
2018-09-13T20:22:09.255Z,93.62
2018-09-13T20:24:37.101Z,93.22
2018-09-13T20:27:05.707Z,93.38
2018-09-13T20:29:34.218Z,93.58
2018-09-13T20:32:02.667Z,93.68
2018-09-13T20:34:31.031Z,93.60
2018-09-13T20:36:59.450Z,93.72
2018-09-13T20:39:27.905Z,93.48
2018-09-13T20:41:57.228Z,93.43
2018-09-13T20:44:25.671Z,93.33
2018-09-13T20:46:54.574Z,94.10
2018-09-13T20:49:23.380Z,94.33
2018-09-13T20:51:51.756Z,94.54
2018-09-13T20:54:20.242Z,93.79
2018-09-13T20:56:48.561Z,94.16
2018-09-13T20:59:16.928Z,93.89
2018-09-13T21:01:45.308Z,94.31
2018-09-13T21:04:13.635Z,93.12
2018-09-13T21:06:42.002Z,93.19
2018-09-13T21:09:11.686Z,93.39
2018-09-13T21:11:40.452Z,93.95
2018-09-13T21:14:08.831Z,94.33
2018-09-13T21:16:37.170Z,93.30
2018-09-13T21:19:05.580Z,93.40
2018-09-13T21:21:33.945Z,92.86
2018-09-13T21:24:02.396Z,93.44
2018-09-13T21:26:30.716Z,93.17
2018-09-13T21:28:59.067Z,93.16
2018-09-13T21:31:27.512Z,93.78
2018-09-13T21:33:55.845Z,93.08
2018-09-13T21:36:24.306Z,93.43
2018-09-13T21:38:52.640Z,93.51
2018-09-13T21:41:21.038Z,93.02
2018-09-13T21:43:49.339Z,93.81
2018-09-13T21:46:17.733Z,94.26
2018-09-13T21:48:46.126Z,94.09
2018-09-13T21:51:14.429Z,93.58
2018-09-13T21:53:42.799Z,93.56
2018-09-13T21:56:11.140Z,93.62
2018-09-13T21:58:39.527Z,93.02
2018-09-13T22:01:07.843Z,93.29
2018-09-13T22:03:36.286Z,93.79
2018-09-13T22:06:04.620Z,93.83
2018-09-13T22:08:32.990Z,93.85
2018-09-13T22:11:01.315Z,93.17
2018-09-13T22:13:32.270Z,92.97
2018-09-13T22:16:01.655Z,92.60
2018-09-13T22:18:30.163Z,92.97
2018-09-13T22:20:58.463Z,93.10
2018-09-13T22:23:26.850Z,93.32
2018-09-13T22:25:55.190Z,93.25
2018-09-13T22:28:23.559Z,93.38
2018-09-13T22:30:51.987Z,93.07
2018-09-13T22:33:20.349Z,92.90
2018-09-13T22:35:48.727Z,92.94
2018-09-13T22:38:17.191Z,93.41
2018-09-13T22:40:45.531Z,93.83
2018-09-13T22:43:13.978Z,94.10
2018-09-13T22:45:42.291Z,93.61
2018-09-13T22:48:10.651Z,93.09
2018-09-13T22:50:39.025Z,93.64
2018-09-13T22:53:07.350Z,93.95
2018-09-13T22:55:35.735Z,93.53
2018-09-13T22:58:04.084Z,93.53
2018-09-13T23:00:32.412Z,93.32
2018-09-13T23:03:00.746Z,93.32
2018-09-13T23:05:29.075Z,93.59
2018-09-13T23:07:57.415Z,93.40
2018-09-13T23:10:25.818Z,93.61
2018-09-13T23:12:54.183Z,93.41
2018-09-13T23:15:22.752Z,94.06
2018-09-13T23:17:51.136Z,94.07
2018-09-13T23:20:19.402Z,93.99
2018-09-13T23:22:47.752Z,94.45
2018-09-13T23:25:16.080Z,95.03
2018-09-13T23:27:44.469Z,95.04
2018-09-13T23:30:12.890Z,94.38
2018-09-13T23:32:41.288Z,94.60
2018-09-13T23:35:09.589Z,94.54
2018-09-13T23:37:37.872Z,94.17
2018-09-13T23:40:06.306Z,94.22
2018-09-13T23:42:34.602Z,94.00
2018-09-13T23:45:02.881Z,94.21
2018-09-13T23:47:31.312Z,93.80
2018-09-13T23:49:59.646Z,93.62
2018-09-13T23:52:27.951Z,93.53
2018-09-13T23:54:56.283Z,93.58
2018-09-13T23:57:24.686Z,93.35
2018-09-13T23:59:53.049Z,93.04
